Time;durP1;ratioP1;P1;durP2;ratioP2;P2;SDS_P1;SDS_P2;PMS_P1;PMS_P2;Temp;Humidity;BMP_temperature;BMP_pressure;BME280_temperature;BME280_humidity;BME280_pressure;Samples;Min_cycle;Max_cycle;Signal;HPM_P1;HPM_P2
2021/09/23 00:01:48;;;;;;;11.73;8.60;;;10.00;99.90;;;;;;6082212;23;20925;-82
2021/09/23 00:04:35;;;;;;;11.60;10.33;;;10.10;99.90;;;;;;6089534;23;20648;-82
2021/09/23 00:07:20;;;;;;;8.73;7.80;;;9.90;99.90;;;;;;6088337;23;21189;-81
2021/09/23 00:10:08;;;;;;;9.97;8.97;;;10.00;99.90;;;;;;6088068;23;20599;-82
2021/09/23 00:12:54;;;;;;;10.73;9.50;;;9.80;99.90;;;;;;6089980;23;20644;-82
2021/09/23 00:15:41;;;;;;;10.47;9.37;;;9.80;99.90;;;;;;6088888;23;20555;-82
2021/09/23 00:18:29;;;;;;;11.27;8.50;;;9.80;99.90;;;;;;6087953;23;20978;-81
2021/09/23 00:21:16;;;;;;;9.93;7.53;;;9.70;99.90;;;;;;6088996;23;20935;-82
2021/09/23 00:24:05;;;;;;;9.47;8.50;;;9.90;99.90;;;;;;6088819;23;20632;-82
2021/09/23 00:26:52;;;;;;;9.73;8.73;;;9.90;99.90;;;;;;6087354;23;20610;-81
2021/09/23 00:29:38;;;;;;;11.03;9.43;;;9.80;99.90;;;;;;6090278;23;20602;-82
2021/09/23 00:32:25;;;;;;;10.10;8.97;;;9.80;99.90;;;;;;6089885;22;20966;-82
2021/09/23 00:35:10;;;;;;;10.53;9.50;;;9.90;99.90;;;;;;6090234;23;20634;-82
2021/09/23 00:37:55;;;;;;;11.57;9.00;;;9.90;99.90;;;;;;6090227;23;20582;-81
2021/09/23 00:40:44;;;;;;;11.37;8.87;;;9.90;99.90;;;;;;6088892;23;20673;-81
2021/09/23 00:43:30;;;;;;;14.57;8.97;;;9.90;99.90;;;;;;6089191;23;20990;-81
2021/09/23 00:46:16;;;;;;;9.60;8.43;;;9.80;99.90;;;;;;6090258;23;20657;-81
2021/09/23 00:48:55;;;;;;;10.17;8.90;;;9.70;99.90;;;;;;6090433;23;20562;-81
2021/09/23 00:51:43;;;;;;;13.10;8.97;;;9.70;99.90;;;;;;6088888;23;20662;-81
2021/09/23 00:54:30;;;;;;;13.23;9.80;;;9.60;99.90;;;;;;6089238;23;20619;-81
2021/09/23 00:57:18;;;;;;;12.63;10.00;;;9.60;99.90;;;;;;6089782;23;20645;-81
2021/09/23 01:00:08;;;;;;;11.10;8.30;;;9.60;99.90;;;;;;6089006;23;20571;-81
2021/09/23 01:02:55;;;;;;;10.53;8.03;;;9.50;99.90;;;;;;6087125;23;20730;-81
2021/09/23 01:05:42;;;;;;;9.10;7.70;;;9.40;99.90;;;;;;6088248;23;20590;-80
2021/09/23 01:08:29;;;;;;;9.67;8.47;;;9.40;99.90;;;;;;6087946;23;20602;-81
2021/09/23 01:11:15;;;;;;;8.50;7.70;;;9.40;99.90;;;;;;6082283;23;20645;-81
2021/09/23 01:14:05;;;;;;;9.00;8.03;;;9.40;99.90;;;;;;6088743;23;21172;-80
2021/09/23 01:16:52;;;;;;;10.27;8.07;;;9.40;99.90;;;;;;6088753;23;20918;-80
2021/09/23 01:19:40;;;;;;;11.97;7.90;;;9.40;99.90;;;;;;6088489;23;20976;-81
2021/09/23 01:22:29;;;;;;;13.13;7.67;;;9.30;99.90;;;;;;6089051;23;20605;-81
2021/09/23 01:25:18;;;;;;;8.47;7.07;;;9.20;99.90;;;;;;6088682;23;20595;-80
2021/09/23 01:28:06;;;;;;;11.20;7.97;;;9.10;99.90;;;;;;6087586;23;20693;-81
2021/09/23 01:30:52;;;;;;;8.30;7.30;;;9.10;99.90;;;;;;6089698;23;20616;-80
2021/09/23 01:33:39;;;;;;;11.57;8.80;;;9.10;99.90;;;;;;6088818;23;21128;-80
2021/09/23 01:36:26;;;;;;;8.67;7.77;;;9.10;99.90;;;;;;6088699;23;20598;-81
2021/09/23 01:39:18;;;;;;;9.30;7.40;;;9.00;99.90;;;;;;6088884;23;20609;-81
2021/09/23 01:42:06;;;;;;;7.40;6.70;;;9.20;99.90;;;;;;6088549;23;20614;-81
2021/09/23 01:44:53;;;;;;;7.10;6.40;;;9.20;99.90;;;;;;6089910;23;20644;-81
2021/09/23 01:47:40;;;;;;;9.70;8.33;;;9.20;99.90;;;;;;6087964;23;20618;-81
2021/09/23 01:50:27;;;;;;;10.43;8.73;;;9.20;99.90;;;;;;6088715;23;21337;-80
2021/09/23 01:53:14;;;;;;;8.80;7.70;;;9.10;99.90;;;;;;6086509;23;20921;-81
2021/09/23 01:56:02;;;;;;;9.00;8.10;;;9.00;99.90;;;;;;6085888;23;20622;-80
2021/09/23 01:58:49;;;;;;;11.83;8.03;;;9.00;99.90;;;;;;6087990;23;20769;-81
2021/09/23 02:01:36;;;;;;;7.97;7.28;;;9.00;99.90;;;;;;6087901;23;20590;-81
2021/09/23 02:04:23;;;;;;;9.57;8.57;;;9.00;99.90;;;;;;6086160;23;20274;-81
2021/09/23 02:07:10;;;;;;;9.43;7.63;;;9.00;99.90;;;;;;6085377;23;20684;-80
2021/09/23 02:09:57;;;;;;;8.30;7.50;;;8.90;99.90;;;;;;6087250;23;20590;-80
2021/09/23 02:12:45;;;;;;;9.15;8.00;;;9.00;99.90;;;;;;6086185;23;20617;-80
2021/09/23 02:15:32;;;;;;;9.97;8.07;;;9.00;99.90;;;;;;6086591;23;20225;-81
2021/09/23 02:18:18;;;;;;;12.07;7.63;;;9.00;99.90;;;;;;6086034;23;20575;-80
2021/09/23 02:21:05;;;;;;;10.43;7.87;;;9.00;99.90;;;;;;6080067;23;20690;-81
2021/09/23 02:23:52;;;;;;;8.30;7.40;;;8.90;99.90;;;;;;6086483;23;21210;-80
2021/09/23 02:26:39;;;;;;;8.20;7.23;;;8.90;99.90;;;;;;6084510;23;20601;-80
2021/09/23 02:29:27;;;;;;;7.23;6.50;;;9.00;99.90;;;;;;6086138;23;21179;-80
2021/09/23 02:32:14;;;;;;;8.20;7.50;;;8.90;99.90;;;;;;6086796;23;20627;-80
2021/09/23 02:35:02;;;;;;;8.40;7.30;;;8.90;99.90;;;;;;6086105;23;20658;-80
2021/09/23 02:37:49;;;;;;;8.70;7.80;;;8.80;99.90;;;;;;6085578;23;20881;-80
2021/09/23 02:40:36;;;;;;;8.90;7.23;;;8.80;99.90;;;;;;6086627;23;20670;-80
2021/09/23 02:43:23;;;;;;;9.07;8.00;;;8.80;99.90;;;;;;6086994;23;20607;-80
2021/09/23 02:46:11;;;;;;;8.37;7.50;;;8.80;99.90;;;;;;6087311;23;20606;-80
2021/09/23 02:48:59;;;;;;;8.90;8.00;;;8.90;99.90;;;;;;6087399;23;20979;-80
2021/09/23 02:51:46;;;;;;;11.00;8.60;;;8.90;99.90;;;;;;6085887;23;20656;-80
2021/09/23 02:54:32;;;;;;;12.50;9.70;;;8.90;99.90;;;;;;6086698;23;20685;-80
2021/09/23 02:57:19;;;;;;;9.50;8.60;;;9.00;99.90;;;;;;6085927;23;20567;-80
2021/09/23 03:00:08;;;;;;;10.70;9.60;;;9.00;99.90;;;;;;6086762;23;20678;-80
2021/09/23 03:02:56;;;;;;;10.33;8.80;;;9.00;99.90;;;;;;6086401;23;21028;-80
2021/09/23 03:05:44;;;;;;;9.67;8.53;;;8.90;99.90;;;;;;6086358;23;20678;-80
2021/09/23 03:08:31;;;;;;;9.67;8.77;;;8.90;99.90;;;;;;6086109;23;20892;-80
2021/09/23 03:11:15;;;;;;;10.30;8.38;;;9.00;99.90;;;;;;6087825;23;20558;-80
2021/09/23 03:14:02;;;;;;;9.13;8.13;;;9.00;99.90;;;;;;6086435;23;20218;-80
2021/09/23 03:16:49;;;;;;;9.47;8.00;;;8.90;99.90;;;;;;6085632;23;20599;-80
2021/09/23 03:19:38;;;;;;;13.03;9.50;;;8.80;99.90;;;;;;6086321;23;21484;-80
2021/09/23 03:22:26;;;;;;;10.47;9.37;;;8.70;99.90;;;;;;6079709;23;20654;-80
2021/09/23 03:25:13;;;;;;;10.67;8.57;;;8.60;99.90;;;;;;6085950;23;20644;-80
2021/09/23 03:28:00;;;;;;;10.30;8.37;;;8.70;99.90;;;;;;6083661;23;20641;-81
2021/09/23 03:30:47;;;;;;;12.10;8.73;;;8.70;99.90;;;;;;6086292;23;21127;-80
2021/09/23 03:33:34;;;;;;;8.13;7.33;;;8.60;99.90;;;;;;6086553;23;20670;-80
2021/09/23 03:36:24;;;;;;;9.37;7.63;;;8.60;99.90;;;;;;6085318;23;21093;-80
2021/09/23 03:39:13;;;;;;;10.05;8.10;;;8.50;99.90;;;;;;6086653;23;20575;-81
2021/09/23 03:42:00;;;;;;;13.20;9.03;;;8.50;99.90;;;;;;6086096;23;20194;-80
2021/09/23 03:44:47;;;;;;;10.27;9.23;;;8.50;99.90;;;;;;6087448;23;20623;-81
2021/09/23 03:47:34;;;;;;;10.82;8.43;;;8.40;99.90;;;;;;6080276;23;21111;-80
2021/09/23 03:50:21;;;;;;;9.48;8.48;;;8.40;99.90;;;;;;6086523;23;20297;-81
2021/09/23 03:53:09;;;;;;;8.43;7.47;;;8.40;99.90;;;;;;6085668;23;20214;-81
2021/09/23 03:55:56;;;;;;;8.55;7.72;;;8.40;99.90;;;;;;6088063;23;20250;-81
2021/09/23 03:58:44;;;;;;;12.00;8.32;;;8.30;99.90;;;;;;6087647;23;20183;-81
2021/09/23 04:01:31;;;;;;;7.82;7.03;;;8.30;99.90;;;;;;6088296;23;20669;-80
2021/09/23 04:04:18;;;;;;;12.88;7.55;;;8.40;99.90;;;;;;6087995;23;20273;-81
2021/09/23 04:07:05;;;;;;;11.38;8.77;;;8.40;99.90;;;;;;6086986;23;20240;-80
2021/09/23 04:09:53;;;;;;;9.85;8.50;;;8.40;99.90;;;;;;6088282;23;20240;-80
2021/09/23 04:12:40;;;;;;;9.10;7.77;;;8.40;99.90;;;;;;6087810;23;20173;-80
2021/09/23 04:15:27;;;;;;;9.00;7.07;;;8.40;99.90;;;;;;6088106;23;20671;-80
2021/09/23 04:18:16;;;;;;;8.40;7.60;;;8.40;99.90;;;;;;6087279;23;20254;-80
2021/09/23 04:21:02;;;;;;;9.48;8.35;;;8.40;99.90;;;;;;6088377;23;20182;-80
2021/09/23 04:23:49;;;;;;;13.35;8.82;;;8.30;99.90;;;;;;6087712;23;20226;-80
2021/09/23 04:26:38;;;;;;;14.60;8.48;;;8.20;99.90;;;;;;6085656;23;20179;-80
2021/09/23 04:29:24;;;;;;;14.35;10.05;;;8.30;99.90;;;;;;6089004;23;20191;-80
2021/09/23 04:32:11;;;;;;;10.88;8.95;;;8.40;99.90;;;;;;6081464;23;20245;-80
2021/09/23 04:34:58;;;;;;;16.38;8.35;;;8.40;99.90;;;;;;6089125;23;20187;-81
2021/09/23 04:37:45;;;;;;;10.95;9.15;;;8.60;99.90;;;;;;6086942;23;20207;-80
2021/09/23 04:40:32;;;;;;;17.00;9.77;;;8.50;99.90;;;;;;6088663;23;20497;-81
2021/09/23 04:43:20;;;;;;;12.82;9.98;;;8.50;99.90;;;;;;6087746;23;20286;-80
2021/09/23 04:46:07;;;;;;;10.80;8.95;;;8.50;99.90;;;;;;6083227;23;20601;-81
2021/09/23 04:48:54;;;;;;;14.55;10.60;;;8.60;99.90;;;;;;6085976;23;20185;-81
2021/09/23 04:51:41;;;;;;;12.02;9.50;;;8.60;99.90;;;;;;6087768;23;20197;-81
2021/09/23 04:54:28;;;;;;;12.25;9.95;;;8.60;99.90;;;;;;6086457;23;20171;-81
2021/09/23 04:57:15;;;;;;;10.77;9.48;;;8.60;99.90;;;;;;6087349;23;20199;-81
2021/09/23 05:00:05;;;;;;;12.70;9.73;;;8.70;99.90;;;;;;6088118;23;20636;-80
2021/09/23 05:02:52;;;;;;;10.55;9.20;;;8.70;99.90;;;;;;6086518;23;20568;-81
2021/09/23 05:05:40;;;;;;;16.42;11.38;;;8.60;99.90;;;;;;6088758;23;20170;-81
2021/09/23 05:08:27;;;;;;;11.60;9.73;;;8.60;99.90;;;;;;6089898;23;20194;-81
2021/09/23 05:11:10;;;;;;;12.98;10.15;;;8.60;99.90;;;;;;6089460;23;20167;-81
2021/09/23 05:13:57;;;;;;;14.00;11.07;;;8.70;99.90;;;;;;6088499;23;20561;-81
2021/09/23 05:16:45;;;;;;;11.73;10.20;;;8.70;99.90;;;;;;6088362;23;20252;-81
2021/09/23 05:19:32;;;;;;;13.15;9.93;;;8.60;99.90;;;;;;6088771;23;20214;-81
2021/09/23 05:22:22;;;;;;;10.93;9.80;;;8.50;99.90;;;;;;6088695;23;20171;-80
2021/09/23 05:25:10;;;;;;;10.30;9.20;;;8.40;99.90;;;;;;6088849;23;20590;-81
2021/09/23 05:27:57;;;;;;;10.90;9.77;;;8.40;99.90;;;;;;6086378;23;20191;-80
2021/09/23 05:30:44;;;;;;;12.10;9.50;;;8.50;99.90;;;;;;6088674;23;20258;-80
2021/09/23 05:33:28;;;;;;;10.38;8.65;;;8.50;99.90;;;;;;6090257;23;20179;-80
2021/09/23 05:36:15;;;;;;;11.68;9.50;;;8.40;99.90;;;;;;6090042;23;20191;-80
2021/09/23 05:39:03;;;;;;;10.85;9.18;;;8.50;99.90;;;;;;6088060;23;20468;-80
2021/09/23 05:41:49;;;;;;;12.13;9.45;;;8.50;99.90;;;;;;6090110;23;20262;-80
2021/09/23 05:44:37;;;;;;;13.63;10.38;;;8.50;99.90;;;;;;6088855;23;20216;-80
2021/09/23 05:47:24;;;;;;;13.45;9.45;;;8.50;99.90;;;;;;6087376;23;20568;-80
2021/09/23 05:50:13;;;;;;;11.60;9.20;;;8.60;99.90;;;;;;6086361;23;20206;-81
2021/09/23 05:53:00;;;;;;;14.75;8.45;;;8.70;99.90;;;;;;6088648;23;20657;-80
2021/09/23 05:55:47;;;;;;;10.60;9.33;;;8.80;99.90;;;;;;6088343;23;20217;-81
2021/09/23 05:58:34;;;;;;;11.70;9.25;;;8.90;99.90;;;;;;6088132;23;20595;-80
2021/09/23 06:01:21;;;;;;;11.90;9.17;;;9.00;99.90;;;;;;6089217;23;20191;-80
2021/09/23 06:04:08;;;;;;;10.88;8.85;;;9.10;99.90;;;;;;6088389;23;20614;-81
2021/09/23 06:06:56;;;;;;;10.17;8.87;;;9.20;99.90;;;;;;6086197;23;20195;-80
2021/09/23 06:09:43;;;;;;;10.73;9.63;;;9.30;99.90;;;;;;6086379;23;20617;-81
2021/09/23 06:12:30;;;;;;;15.07;10.17;;;9.40;99.90;;;;;;6089642;23;20573;-81
2021/09/23 06:15:17;;;;;;;13.68;11.00;;;9.50;99.90;;;;;;6088708;23;21155;-80
2021/09/23 06:18:04;;;;;;;15.85;10.35;;;9.60;99.90;;;;;;6087556;23;20190;-81
2021/09/23 06:20:51;;;;;;;11.53;9.13;;;9.60;99.90;;;;;;6088838;23;20274;-81
2021/09/23 06:23:39;;;;;;;12.27;10.27;;;9.80;99.90;;;;;;6089830;23;20718;-81
2021/09/23 06:26:26;;;;;;;12.83;8.37;;;9.90;99.90;;;;;;6088013;23;20606;-80
2021/09/23 06:29:13;;;;;;;12.67;8.97;;;10.00;99.90;;;;;;6088541;23;20634;-81
2021/09/23 06:31:59;;;;;;;12.47;9.30;;;10.00;99.90;;;;;;6087671;23;20567;-81
2021/09/23 06:34:46;;;;;;;12.30;8.63;;;10.10;99.90;;;;;;6088437;23;20590;-81
2021/09/23 06:37:33;;;;;;;11.03;9.23;;;10.20;99.90;;;;;;6087695;23;20567;-81
2021/09/23 06:40:22;;;;;;;10.30;8.33;;;10.30;99.90;;;;;;6088523;23;20690;-81
2021/09/23 06:43:08;;;;;;;10.23;7.93;;;10.40;99.90;;;;;;6088359;23;20567;-80
2021/09/23 06:45:55;;;;;;;10.10;8.43;;;10.50;99.90;;;;;;6088636;23;20985;-81
2021/09/23 06:48:42;;;;;;;10.87;7.80;;;10.50;99.90;;;;;;6087400;23;20980;-80
2021/09/23 06:51:30;;;;;;;12.53;7.90;;;10.60;99.90;;;;;;6087737;23;20607;-80
2021/09/23 06:54:17;;;;;;;12.20;8.67;;;10.80;99.90;;;;;;6089814;23;20555;-80
2021/09/23 06:57:06;;;;;;;12.13;8.70;;;11.00;99.90;;;;;;6086662;23;20661;-80
2021/09/23 06:59:52;;;;;;;9.60;8.03;;;11.00;99.90;;;;;;6087897;23;20678;-80
2021/09/23 07:02:39;;;;;;;10.93;8.80;;;11.00;99.90;;;;;;6080827;23;20702;-80
2021/09/23 07:05:28;;;;;;;10.93;7.40;;;11.20;99.90;;;;;;6088125;23;20638;-80
2021/09/23 07:08:18;;;;;;;10.40;8.07;;;11.20;99.90;;;;;;6086506;23;20626;-81
2021/09/23 07:11:05;;;;;;;11.83;7.70;;;11.30;99.90;;;;;;6088048;23;20587;-80
2021/09/23 07:13:53;;;;;;;8.50;6.93;;;11.50;99.90;;;;;;6087646;23;20618;-81
2021/09/23 07:16:40;;;;;;;14.90;8.20;;;11.70;99.90;;;;;;6087221;23;20661;-81
2021/09/23 07:19:27;;;;;;;8.70;6.97;;;11.80;99.90;;;;;;6087412;23;21004;-81
2021/09/23 07:22:14;;;;;;;10.23;7.20;;;11.90;99.90;;;;;;6087735;23;20670;-81
2021/09/23 07:24:58;;;;;;;9.20;7.30;;;12.00;99.90;;;;;;6088798;23;20590;-82
2021/09/23 07:27:45;;;;;;;10.57;6.40;;;12.10;99.90;;;;;;6086807;23;20598;-82
2021/09/23 07:30:33;;;;;;;7.73;6.03;;;12.30;99.90;;;;;;6087571;23;20591;-82
2021/09/23 07:33:20;;;;;;;10.70;6.00;;;12.40;99.90;;;;;;6087367;23;20587;-82
2021/09/23 07:36:07;;;;;;;8.23;5.90;;;12.60;99.90;;;;;;6087411;23;20958;-81
2021/09/23 07:38:54;;;;;;;7.37;6.10;;;12.80;99.90;;;;;;6087292;23;21029;-82
2021/09/23 07:41:44;;;;;;;6.90;5.47;;;12.90;99.90;;;;;;6087400;23;20578;-81
2021/09/23 07:44:32;;;;;;;5.13;4.73;;;12.90;99.90;;;;;;6087821;23;21173;-81
2021/09/23 07:47:21;;;;;;;5.80;4.97;;;13.00;99.90;;;;;;6086574;23;20576;-81
2021/09/23 07:50:09;;;;;;;5.00;4.50;;;13.00;99.90;;;;;;6087945;23;20597;-81
2021/09/23 07:52:56;;;;;;;4.83;4.43;;;13.10;99.90;;;;;;6088100;23;21161;-81
2021/09/23 07:55:43;;;;;;;5.53;5.00;;;13.10;99.90;;;;;;6089372;23;21115;-81
2021/09/23 07:58:30;;;;;;;5.30;4.17;;;13.30;99.90;;;;;;6086057;23;20593;-82
2021/09/23 08:01:17;;;;;;;5.23;4.73;;;13.50;99.90;;;;;;6088321;23;20936;-82
2021/09/23 08:04:05;;;;;;;6.43;4.83;;;13.80;99.00;;;;;;6088188;23;20714;-82
2021/09/23 08:06:52;;;;;;;5.80;4.43;;;14.00;98.60;;;;;;6084610;23;20582;-82
2021/09/23 08:09:39;;;;;;;3.70;3.40;;;14.20;99.10;;;;;;6087816;23;20632;-83
2021/09/23 08:12:27;;;;;;;6.03;3.87;;;14.30;97.50;;;;;;6086354;23;20984;-82
2021/09/23 08:15:14;;;;;;;3.67;3.30;;;14.50;97.20;;;;;;6085791;23;20582;-85
2021/09/23 08:18:01;;;;;;;4.13;3.67;;;14.60;96.80;;;;;;6086433;23;21201;-83
2021/09/23 08:20:49;;;;;;;4.90;3.53;;;14.60;96.30;;;;;;6088169;23;20694;-84
2021/09/23 08:23:36;;;;;;;5.07;3.57;;;14.50;96.40;;;;;;6087171;23;20607;-84
2021/09/23 08:26:27;;;;;;;4.20;3.33;;;14.70;96.20;;;;;;6081707;23;20662;-84
2021/09/23 08:29:14;;;;;;;5.83;3.50;;;14.70;95.40;;;;;;6082610;23;20599;-84
2021/09/23 08:31:59;;;;;;;6.10;3.30;;;14.70;95.20;;;;;;6089144;23;20554;-83
2021/09/23 08:34:46;;;;;;;4.50;3.67;;;15.00;94.70;;;;;;6088720;23;20575;-82
2021/09/23 08:37:35;;;;;;;4.50;3.60;;;15.10;94.50;;;;;;6089195;23;20566;-82
2021/09/23 08:40:22;;;;;;;3.70;3.40;;;15.40;93.90;;;;;;6088348;23;20614;-83
2021/09/23 08:43:10;;;;;;;4.10;3.53;;;15.60;93.10;;;;;;6086943;23;20624;-82
2021/09/23 08:45:59;;;;;;;3.73;3.43;;;15.50;93.30;;;;;;6086441;23;20715;-82
2021/09/23 08:48:48;;;;;;;3.80;3.47;;;15.70;93.00;;;;;;6088840;23;20644;-82
2021/09/23 08:51:37;;;;;;;3.90;3.00;;;15.90;92.20;;;;;;6088484;23;21144;-82
2021/09/23 08:54:25;;;;;;;3.67;2.80;;;16.00;91.80;;;;;;6088744;23;20574;-82
2021/09/23 08:57:12;;;;;;;3.80;3.27;;;16.10;91.90;;;;;;6088061;23;20567;-82
2021/09/23 09:00:09;;;;;;;3.80;3.40;;;16.00;90.90;;;;;;6088969;23;20640;-81
2021/09/23 09:03:01;;;;;;;6.10;3.57;;;16.20;92.00;;;;;;6089048;23;20934;-82
2021/09/23 09:05:53;;;;;;;3.20;2.90;;;16.40;91.10;;;;;;6084999;23;20626;-82
2021/09/23 09:08:42;;;;;;;4.63;4.23;;;16.50;91.50;;;;;;6089444;23;20600;-82
2021/09/23 09:11:31;;;;;;;4.07;3.17;;;16.80;90.60;;;;;;6087252;23;20664;-82
2021/09/23 09:14:26;;;;;;;3.70;3.40;;;16.90;90.30;;;;;;6089539;23;20666;-81
2021/09/23 09:17:13;;;;;;;6.70;3.47;;;16.80;91.20;;;;;;6089110;23;21177;-82
2021/09/23 09:20:08;;;;;;;4.27;2.80;;;17.10;90.60;;;;;;6088903;23;20573;-82
2021/09/23 09:23:05;;;;;;;2.97;2.73;;;17.10;91.00;;;;;;6088744;23;20649;-83
2021/09/23 09:25:53;;;;;;;3.00;2.80;;;17.00;90.60;;;;;;6088871;23;20997;-83
2021/09/23 09:28:52;;;;;;;4.03;3.53;;;17.10;90.40;;;;;;6089864;23;20918;-83
2021/09/23 09:31:46;;;;;;;3.50;3.30;;;17.30;90.40;;;;;;6087553;23;20693;-82
2021/09/23 09:34:33;;;;;;;3.53;3.23;;;17.40;90.40;;;;;;6087136;23;20578;-83
2021/09/23 09:37:23;;;;;;;3.43;3.13;;;17.40;88.60;;;;;;6087597;23;20621;-83
2021/09/23 09:40:14;;;;;;;3.80;3.43;;;17.70;88.50;;;;;;6082031;23;20613;-82
2021/09/23 09:43:04;;;;;;;3.40;2.97;;;17.80;87.30;;;;;;6089349;23;20882;-83
2021/09/23 09:45:54;;;;;;;4.80;3.80;;;17.70;89.00;;;;;;6085984;23;20610;-83
2021/09/23 09:48:42;;;;;;;4.53;2.70;;;17.80;89.90;;;;;;6076411;23;20642;-83
2021/09/23 09:51:38;;;;;;;3.40;3.10;;;17.90;88.00;;;;;;6082193;23;20666;-82
2021/09/23 09:54:25;;;;;;;3.07;2.80;;;18.10;87.40;;;;;;6089284;23;20592;-83
2021/09/23 09:57:09;;;;;;;5.70;3.70;;;18.20;87.80;;;;;;6089710;23;20532;-83
2021/09/23 09:59:59;;;;;;;3.40;3.10;;;18.30;88.00;;;;;;6089216;23;20980;-82
2021/09/23 10:02:48;;;;;;;3.17;2.97;;;18.40;88.60;;;;;;6089530;23;20617;-82
2021/09/23 10:05:35;;;;;;;3.63;3.17;;;17.80;88.20;;;;;;6088465;23;20733;-84
2021/09/23 10:08:22;;;;;;;3.07;2.87;;;17.80;90.50;;;;;;6087901;23;20632;-83
2021/09/23 10:11:09;;;;;;;2.80;2.60;;;17.80;89.40;;;;;;6089077;23;20614;-83
2021/09/23 10:13:57;;;;;;;7.13;2.80;;;18.00;90.50;;;;;;6085363;23;20618;-82
2021/09/23 10:16:45;;;;;;;6.43;3.27;;;18.10;89.30;;;;;;6088695;23;20672;-83
2021/09/23 10:19:35;;;;;;;4.40;3.00;;;18.10;89.20;;;;;;6089256;23;20666;-83
2021/09/23 10:22:21;;;;;;;3.87;3.23;;;18.30;88.30;;;;;;6088855;23;20644;-84
2021/09/23 10:25:13;;;;;;;3.67;3.38;;;18.50;88.70;;;;;;6087320;23;20725;-83
2021/09/23 10:28:03;;;;;;;4.80;2.60;;;18.70;88.20;;;;;;6087771;23;20199;-83
2021/09/23 10:30:51;;;;;;;3.60;3.30;;;18.90;87.80;;;;;;6088802;23;20702;-83
2021/09/23 10:33:39;;;;;;;2.40;2.20;;;18.90;87.20;;;;;;6088882;23;20583;-83
2021/09/23 10:36:29;;;;;;;3.93;2.87;;;19.00;84.30;;;;;;6089896;23;20645;-83
2021/09/23 10:39:18;;;;;;;2.83;2.03;;;19.00;84.50;;;;;;6088933;23;20942;-83
2021/09/23 10:42:11;;;;;;;3.33;2.43;;;18.90;84.90;;;;;;6088521;23;20585;-83
2021/09/23 10:44:58;;;;;;;2.63;2.30;;;19.10;82.00;;;;;;6088613;23;20610;-83
2021/09/23 10:47:37;;;;;;;2.90;2.70;;;19.40;79.90;;;;;;6087775;23;20589;-84
2021/09/23 10:50:26;;;;;;;2.40;2.20;;;19.40;78.70;;;;;;6088386;23;20908;-83
2021/09/23 10:53:15;;;;;;;2.67;2.33;;;19.50;78.60;;;;;;6088237;23;20674;-83
2021/09/23 10:56:03;;;;;;;2.20;2.00;;;19.60;78.30;;;;;;6088977;23;21166;-83
2021/09/23 10:58:52;;;;;;;2.30;2.10;;;19.50;81.30;;;;;;6088724;23;21081;-83
2021/09/23 11:01:40;;;;;;;2.80;2.60;;;19.40;75.80;;;;;;6083802;23;20607;-83
2021/09/23 11:04:28;;;;;;;2.87;2.67;;;19.50;78.60;;;;;;6086600;23;20610;-83
2021/09/23 11:07:15;;;;;;;2.00;1.90;;;19.30;78.40;;;;;;6088151;23;20602;-83
2021/09/23 11:10:15;;;;;;;2.93;2.00;;;19.20;78.80;;;;;;6088497;23;20668;-83
2021/09/23 11:13:03;;;;;;;2.40;2.20;;;19.40;77.70;;;;;;6088142;23;20910;-83
2021/09/23 11:15:51;;;;;;;4.60;2.03;;;19.40;77.30;;;;;;6089466;23;20985;-83
2021/09/23 11:18:40;;;;;;;2.40;2.20;;;19.50;77.00;;;;;;6087778;23;20644;-83
2021/09/23 11:21:27;;;;;;;2.00;1.90;;;19.60;77.50;;;;;;6088527;23;20629;-83
2021/09/23 11:24:15;;;;;;;3.27;2.57;;;19.70;76.20;;;;;;6089011;23;20578;-83
2021/09/23 11:27:07;;;;;;;2.73;2.50;;;19.70;74.90;;;;;;6088145;23;20591;-83
2021/09/23 11:29:54;;;;;;;2.87;2.67;;;19.70;73.10;;;;;;6088559;23;20578;-83
2021/09/23 11:32:49;;;;;;;2.43;2.23;;;19.70;75.90;;;;;;6088912;23;20947;-83
2021/09/23 11:35:38;;;;;;;2.50;2.30;;;19.60;77.00;;;;;;6088864;23;20951;-84
2021/09/23 11:38:26;;;;;;;2.63;2.20;;;19.60;77.60;;;;;;6088304;23;20617;-84
2021/09/23 11:41:15;;;;;;;2.37;2.17;;;19.70;74.20;;;;;;6088738;23;20579;-84
2021/09/23 11:44:23;;;;;;;2.50;2.30;;;19.90;75.40;;;;;;6088438;23;20602;-83
2021/09/23 11:47:13;;;;;;;3.10;2.80;;;20.00;74.20;;;;;;6088347;23;20572;-85
2021/09/23 11:50:00;;;;;;;3.00;2.23;;;20.00;71.70;;;;;;6088440;23;20567;-83
2021/09/23 11:52:52;;;;;;;2.30;2.10;;;20.00;71.80;;;;;;6088898;23;20564;-84
2021/09/23 11:55:42;;;;;;;3.10;2.37;;;20.10;70.90;;;;;;6087146;23;20574;-84
2021/09/23 11:58:31;;;;;;;3.63;2.50;;;20.20;70.40;;;;;;6086865;23;20600;-82
2021/09/23 12:01:22;;;;;;;2.17;2.07;;;20.20;67.50;;;;;;6088141;23;20583;-84
2021/09/23 12:04:12;;;;;;;2.10;1.90;;;20.30;68.10;;;;;;6088475;23;20644;-84
2021/09/23 12:07:04;;;;;;;2.80;2.50;;;20.30;68.20;;;;;;6089187;23;20587;-84
2021/09/23 12:10:02;;;;;;;6.97;3.27;;;20.30;70.00;;;;;;6089419;23;20575;-84
2021/09/23 12:12:56;;;;;;;2.57;2.37;;;20.20;68.20;;;;;;6085285;23;20604;-84
2021/09/23 12:15:50;;;;;;;4.50;3.20;;;20.40;69.40;;;;;;6089305;23;20599;-84
2021/09/23 12:18:39;;;;;;;2.67;2.47;;;20.50;67.30;;;;;;6089108;23;20588;-84
2021/09/23 12:21:28;;;;;;;2.37;2.17;;;20.50;66.80;;;;;;6089984;23;20544;-84
2021/09/23 12:24:15;;;;;;;2.83;2.30;;;20.70;68.50;;;;;;6092526;22;20637;-84
2021/09/23 12:27:02;;;;;;;2.17;2.07;;;20.70;64.10;;;;;;6089225;23;20646;-84
2021/09/23 12:29:51;;;;;;;2.80;2.60;;;20.70;63.70;;;;;;6089862;23;20947;-84
2021/09/23 12:32:39;;;;;;;4.40;2.50;;;20.80;66.80;;;;;;6089580;23;20611;-85
2021/09/23 12:35:28;;;;;;;4.40;2.77;;;20.90;67.40;;;;;;6090591;23;20683;-83
2021/09/23 12:38:15;;;;;;;5.40;2.47;;;20.90;67.50;;;;;;6089896;23;21139;-83
2021/09/23 12:41:15;;;;;;;3.17;2.90;;;21.00;65.40;;;;;;6083770;23;20943;-83
2021/09/23 12:44:05;;;;;;;2.67;2.03;;;20.90;64.30;;;;;;6089039;23;20589;-83
2021/09/23 12:47:10;;;;;;;2.70;2.10;;;21.00;66.00;;;;;;6088916;23;20627;-84
2021/09/23 12:50:01;;;;;;;2.53;2.33;;;21.10;64.40;;;;;;6089729;23;20671;-84
2021/09/23 12:52:50;;;;;;;2.80;2.60;;;21.20;66.50;;;;;;6090391;23;20589;-82
2021/09/23 12:55:40;;;;;;;2.53;2.33;;;21.30;66.50;;;;;;6090322;23;20578;-83
2021/09/23 12:58:27;;;;;;;3.00;2.53;;;21.20;66.70;;;;;;6090101;23;20601;-83
2021/09/23 13:01:20;;;;;;;2.33;2.13;;;21.20;66.60;;;;;;6085713;23;21158;-83
2021/09/23 13:04:20;;;;;;;3.37;3.07;;;21.10;67.80;;;;;;6089314;23;20582;-83
2021/09/23 13:07:18;;;;;;;2.50;2.27;;;21.00;69.00;;;;;;6089097;23;20970;-83
2021/09/23 13:10:11;;;;;;;2.73;2.13;;;21.00;68.90;;;;;;6091031;23;20539;-84
2021/09/23 13:13:00;;;;;;;2.70;2.40;;;21.10;70.10;;;;;;6090345;22;20987;-83
2021/09/23 13:15:47;;;;;;;4.03;2.50;;;21.10;69.70;;;;;;6086087;23;20598;-84
2021/09/23 13:18:34;;;;;;;5.73;2.60;;;21.10;69.10;;;;;;6090206;23;20605;-83
2021/09/23 13:21:21;;;;;;;3.17;2.80;;;21.30;68.70;;;;;;6089003;23;20689;-82
2021/09/23 13:24:08;;;;;;;3.23;2.93;;;21.20;69.70;;;;;;6088983;23;20612;-84
2021/09/23 13:26:57;;;;;;;6.20;3.13;;;21.30;71.00;;;;;;6089397;23;20686;-83
2021/09/23 13:29:43;;;;;;;2.43;2.27;;;21.30;71.50;;;;;;6088676;23;20589;-84
2021/09/23 13:32:30;;;;;;;3.27;2.73;;;21.30;71.50;;;;;;6082968;23;20613;-84
2021/09/23 13:35:18;;;;;;;3.70;3.20;;;21.30;72.50;;;;;;6088868;23;20632;-83
2021/09/23 13:38:05;;;;;;;3.37;3.00;;;21.30;74.00;;;;;;6088523;23;20574;-84
2021/09/23 13:40:52;;;;;;;3.27;3.00;;;21.30;73.50;;;;;;6087724;23;20673;-84
2021/09/23 13:43:42;;;;;;;3.40;3.10;;;21.30;74.20;;;;;;6088818;23;20648;-84
2021/09/23 13:46:32;;;;;;;2.97;2.67;;;21.30;74.70;;;;;;6088039;23;20644;-83
2021/09/23 13:49:21;;;;;;;3.77;3.13;;;21.30;75.10;;;;;;6088533;23;21115;-84
2021/09/23 13:52:08;;;;;;;4.03;3.33;;;21.30;77.30;;;;;;6090053;23;20609;-84
2021/09/23 13:54:55;;;;;;;4.83;2.80;;;21.40;75.90;;;;;;6084573;23;20582;-83
2021/09/23 13:57:42;;;;;;;4.77;4.30;;;21.40;77.20;;;;;;6087666;23;20574;-83
2021/09/23 14:00:40;;;;;;;5.03;3.40;;;21.50;76.30;;;;;;6089743;23;20589;-85
2021/09/23 14:03:29;;;;;;;3.03;2.83;;;21.60;77.00;;;;;;6087681;23;20582;-84
2021/09/23 14:06:22;;;;;;;4.10;3.50;;;21.60;76.40;;;;;;6089188;23;21169;-84
2021/09/23 14:09:16;;;;;;;3.93;3.23;;;21.80;75.30;;;;;;6089053;23;20566;-84
2021/09/23 14:12:06;;;;;;;3.95;3.20;;;21.90;75.00;;;;;;6088077;23;20808;-87
2021/09/23 14:14:47;;;;;;;3.23;2.93;;;22.70;76.40;;;;;;6087084;23;20199;-85
2021/09/23 14:17:35;;;;;;;5.00;3.07;;;23.80;73.70;;;;;;6088254;23;20652;-84
2021/09/23 14:20:22;;;;;;;6.80;3.53;;;25.00;71.90;;;;;;6088972;23;20599;-84
2021/09/23 14:23:09;;;;;;;5.73;3.43;;;24.00;68.60;;;;;;6088840;23;20615;-85
2021/09/23 14:25:56;;;;;;;4.37;3.07;;;23.40;71.20;;;;;;6088765;23;20602;-84
2021/09/23 14:28:44;;;;;;;4.20;3.70;;;23.00;73.90;;;;;;6089081;23;20922;-85
2021/09/23 14:31:31;;;;;;;3.40;3.10;;;22.70;73.20;;;;;;6088999;23;20583;-85
2021/09/23 14:34:19;;;;;;;4.77;3.67;;;22.80;74.00;;;;;;6088896;23;20606;-84
2021/09/23 14:37:07;;;;;;;9.13;4.40;;;22.90;72.90;;;;;;6089266;23;20563;-85